»·PEaware :: SWA2028 KLAX-KLAS

SWA2028 :: KLAX-KLAS

FLIGHT INFORMATION

Flight Status: Arrived
Operator:
Southwest Airlines
More flights by this operator :: More flights under this callsign
Pilot: Cody B. (17747)
Aircraft: BOEING 737-800
(B738)
More flights by this aircraft type
Origin: KLAX Los Angeles Intl
United States
Destination: KLAS McCarran Intl
United States
More flights between these airports :: More routes between these airports
Route: +ORCKA2 MISEN KEPEC6
File this flight plan on PilotEdge
Remarks:
Altitude:
(Current/Filed)
29,000ft
Speed:
(Current/Filed)
436kts
Departed: 08-May-18 04:29 PM
Arrived: 08-May-18 05:18 PM
Distance/Time
Traveled:
205nm/0:49
Distance/Time
To Go:
Arrived

Flight Plot

Page will automatically refresh every two minutes.

Flight plan parsing failed; only flown route is shown


Map Options




Map Legend


Flown Route
Filed Route
Departure Airport
Arrival Airport
Navaid (VOR, NDB)
Fix

Horizontal Profiles

Position Reports

Time Latitude Longitude Heading Altitude Ground
Speed
08-May-18 15:47 33.946728 -118.401696 85 116ft 0kts
08-May-18 15:48 33.946728 -118.401696 85 116ft 0kts
08-May-18 15:49 33.946728 -118.401696 85 116ft 0kts
08-May-18 15:50 33.946728 -118.401696 85 116ft 0kts
08-May-18 15:51 33.946728 -118.401696 85 116ft 0kts
08-May-18 15:52 33.946728 -118.401696 85 116ft 0kts
08-May-18 15:53 33.946728 -118.401696 85 116ft 0kts
08-May-18 15:54 33.946728 -118.401696 85 116ft 0kts
08-May-18 15:55 33.946728 -118.401696 85 116ft 0kts
08-May-18 15:56 33.946728 -118.401696 85 116ft 0kts
08-May-18 15:57 33.946728 -118.401696 85 116ft 0kts
08-May-18 15:58 33.946728 -118.401696 85 116ft 0kts
08-May-18 15:59 33.946728 -118.401696 85 116ft 0kts
08-May-18 16:00 33.946728 -118.401696 85 116ft 0kts
08-May-18 16:01 33.946728 -118.401696 85 116ft 0kts
08-May-18 16:02 33.946728 -118.401696 85 116ft 0kts
08-May-18 16:03 33.946728 -118.401696 85 116ft 0kts
08-May-18 16:04 33.946728 -118.401696 85 116ft 0kts
08-May-18 16:05 33.946728 -118.401696 85 116ft 0kts
08-May-18 16:06 33.946728 -118.401696 85 116ft 0kts
08-May-18 16:07 33.946728 -118.401696 85 116ft 0kts
08-May-18 16:08 33.946728 -118.401696 85 116ft 0kts
08-May-18 16:09 33.946728 -118.401696 85 116ft 0kts
08-May-18 16:10 33.946728 -118.401696 85 116ft 0kts
08-May-18 16:11 33.946728 -118.401696 85 116ft 0kts
08-May-18 16:12 33.946728 -118.401696 85 116ft 0kts
08-May-18 16:13 33.946728 -118.401696 85 116ft 0kts
08-May-18 16:14 33.946728 -118.401696 85 116ft 0kts
08-May-18 16:15 33.946728 -118.401696 85 116ft 0kts
08-May-18 16:16 33.946702 -118.402075 85 117ft 2kts
08-May-18 16:17 33.946541 -118.402439 349 117ft 0kts
08-May-18 16:18 33.946507 -118.402432 353 117ft 0kts
08-May-18 16:19 33.946507 -118.402432 353 117ft 0kts
08-May-18 16:20 33.946658 -118.402453 352 117ft 1kts
08-May-18 16:21 33.947565 -118.402587 353 118ft 0kts
08-May-18 16:22 33.947618 -118.402594 354 118ft 1kts
08-May-18 16:23 33.948839 -118.402723 39 117ft 5kts
08-May-18 16:24 33.949226 -118.401780 31 116ft 0kts
08-May-18 16:25 33.949226 -118.401780 30 116ft 0kts
08-May-18 16:26 33.949233 -118.401776 29 116ft 0kts
08-May-18 16:27 33.949233 -118.401776 29 116ft 0kts
08-May-18 16:28 33.950013 -118.403179 263 116ft 15kts
08-May-18 16:29 33.946384 -118.440267 262 1455ft 168kts
08-May-18 16:30 33.940230 -118.498668 263 4396ft 205kts
08-May-18 16:31 33.913540 -118.567797 219 6535ft 272kts
08-May-18 16:32 33.842525 -118.563530 133 10026ft 298kts
08-May-18 16:33 33.833522 -118.464032 58 12690ft 339kts
08-May-18 16:34 33.914083 -118.413804 6 14979ft 356kts
08-May-18 16:35 33.988845 -118.344690 60 16232ft 360kts
08-May-18 16:36 34.042541 -118.241143 53 18971ft 373kts
08-May-18 16:37 34.101245 -118.137177 54 21285ft 390kts
08-May-18 16:38 34.162823 -118.027863 54 23007ft 410kts
08-May-18 16:39 34.226210 -117.914935 54 23067ft 400kts
08-May-18 16:40 34.288922 -117.802913 54 23090ft 405kts
08-May-18 16:41 34.351748 -117.690575 53 23033ft 404kts
08-May-18 16:42 34.418178 -117.578884 52 25113ft 415kts
08-May-18 16:43 34.485602 -117.464769 52 27124ft 422kts
08-May-18 16:44 34.554182 -117.349316 53 29034ft 425kts
08-May-18 16:45 34.624829 -117.230018 53 29051ft 442kts
08-May-18 16:46 34.697518 -117.106805 53 29057ft 465kts
08-May-18 16:47 34.774912 -116.975492 53 28972ft 486kts
08-May-18 16:48 34.853375 -116.841466 53 28970ft 487kts
08-May-18 16:49 34.930672 -116.708717 53 28948ft 456kts
08-May-18 16:50 35.001144 -116.583932 53 27761ft 456kts
08-May-18 16:51 35.070239 -116.460981 54 25072ft 422kts
08-May-18 16:52 35.143503 -116.348855 44 23992ft 416kts
08-May-18 16:53 35.223387 -116.249948 44 24011ft 418kts
08-May-18 16:54 35.304506 -116.148711 44 24010ft 415kts
08-May-18 16:55 35.384637 -116.048062 44 22726ft 404kts
08-May-18 16:56 35.460670 -115.952163 45 19730ft 388kts
08-May-18 16:57 35.533728 -115.859609 45 17226ft 371kts
08-May-18 16:58 35.604154 -115.770143 45 15203ft 357kts
08-May-18 16:59 35.666641 -115.690540 46 13050ft 300kts
08-May-18 17:00 35.726336 -115.614319 46 13028ft 312kts
08-May-18 17:01 35.801582 -115.570781 2 13032ft 312kts
08-May-18 17:02 35.887854 -115.566540 1 13028ft 311kts
08-May-18 17:03 35.969482 -115.540922 45 12788ft 312kts
08-May-18 17:04 36.006234 -115.449805 68 11788ft 278kts
08-May-18 17:05 36.029705 -115.359443 92 10831ft 277kts
08-May-18 17:06 36.023682 -115.266607 96 9704ft 268kts
08-May-18 17:07 36.016997 -115.175028 97 8823ft 291kts
08-May-18 17:08 36.010524 -115.079664 96 8021ft 269kts
08-May-18 17:09 36.005360 -114.993705 96 8027ft 243kts
08-May-18 17:10 36.000535 -114.912793 96 6718ft 231kts
08-May-18 17:11 35.998115 -114.835099 70 5018ft 221kts
08-May-18 17:12 36.044956 -114.812509 321 4938ft 199kts
08-May-18 17:13 36.061995 -114.875414 275 4946ft 196kts
08-May-18 17:14 36.070374 -114.938999 274 4951ft 188kts
08-May-18 17:15 36.071552 -115.002168 273 3970ft 181kts
08-May-18 17:16 36.072989 -115.059025 273 3067ft 154kts
08-May-18 17:17 36.073627 -115.112037 270 2326ft 154kts
08-May-18 17:18 36.074568 -115.145693 296 2102ft 15kts
08-May-18 17:19 36.074624 -115.145832 296 2102ft 0kts
08-May-18 17:20 36.075190 -115.146520 344 2104ft 8kts
08-May-18 17:21 36.077684 -115.147026 294 2103ft 7kts
08-May-18 17:22 36.078526 -115.147682 76 2102ft 7kts
08-May-18 17:23 36.079537 -115.147645 18 2100ft 1kts
08-May-18 17:24 36.079922 -115.147120 57 2096ft 0kts
08-May-18 17:25 36.079922 -115.147121 57 2096ft 0kts

Navigation Log

Ident Type
Flight plan parsing failed, navigation log unavailable